UPSVAC Airport Information Service

San Diego International Airport

ICAO: KSAN Country: United States
Latitude: 32.7336 Longitude: -117.189
Latest Arrival : UPS393 (KONT-KSAN) Latest Departure : UPS2421 (KSAN-KONT)


WX CaptureLIVE
Data provided by noaa.gov | Fetched at 01:22:20

METAR : KSAN 150051Z 29008KT 10SM FEW008 FEW250 23/16 A2989 RMK AO2 SLP120 T02280156

TAF : KSAN 142320Z 1500/1606 29010KT P6SM FEW008 SCT250 FM150300 32005KT P6SM FEW007 FEW250 TEMPO 1510/1514 6SM BR BKN006 FM151900 29010KT P6SM SCT250 FM160300 VRB05KT P6SM SCT006 SCT250


Runway Data for KSAN
Data provided by openaviationdata.com

Runway ID Mag Var Hdg Length Elevation Surface ILS Freq ILS Id ILS Slope
9 13 92° 9394 ft 15 ft Concrete 110.9 ISAN 3
27 13 272° 9394 ft 15 ft Concrete 110.9 IUBR 0

San Diego International Airport, United States
Use only for reference purposes



Not for navigational purposes.